sensor_id;sensor_type;location;lat;lon;timestamp;pressure;altitude;pressure_sealevel;temperature;humidity
29935;BME280;19905;53.370;-6.314;2023-09-08T00:01:08;101261.28;;;19.12;100.00
29935;BME280;19905;53.370;-6.314;2023-09-08T00:03:38;101259.63;;;19.11;100.00
29935;BME280;19905;53.370;-6.314;2023-09-08T00:06:06;101255.09;;;19.12;100.00
29935;BME280;19905;53.370;-6.314;2023-09-08T00:08:35;101252.47;;;19.20;100.00
29935;BME280;19905;53.370;-6.314;2023-09-08T00:11:04;101251.28;;;19.22;100.00
29935;BME280;19905;53.370;-6.314;2023-09-08T00:13:34;101246.13;;;19.29;100.00
29935;BME280;19905;53.370;-6.314;2023-09-08T00:16:03;101249.31;;;19.33;100.00
29935;BME280;19905;53.370;-6.314;2023-09-08T00:18:32;101242.78;;;19.27;100.00
29935;BME280;19905;53.370;-6.314;2023-09-08T00:21:03;101249.31;;;19.24;100.00
29935;BME280;19905;53.370;-6.314;2023-09-08T00:23:32;101244.56;;;19.18;100.00
29935;BME280;19905;53.370;-6.314;2023-09-08T00:26:00;101256.94;;;19.19;100.00
29935;BME280;19905;53.370;-6.314;2023-09-08T00:28:29;101251.94;;;19.16;100.00
29935;BME280;19905;53.370;-6.314;2023-09-08T00:30:58;101253.09;;;19.14;100.00
29935;BME280;19905;53.370;-6.314;2023-09-08T00:33:28;101247.41;;;19.17;100.00
29935;BME280;19905;53.370;-6.314;2023-09-08T00:35:57;101253.59;;;19.17;100.00
29935;BME280;19905;53.370;-6.314;2023-09-08T00:38:27;101248.06;;;19.11;100.00
29935;BME280;19905;53.370;-6.314;2023-09-08T00:40:56;101259.28;;;19.14;100.00
29935;BME280;19905;53.370;-6.314;2023-09-08T00:43:26;101251.25;;;19.14;100.00
29935;BME280;19905;53.370;-6.314;2023-09-08T00:45:55;101244.22;;;19.13;100.00
29935;BME280;19905;53.370;-6.314;2023-09-08T00:48:26;101246.53;;;19.08;100.00
29935;BME280;19905;53.370;-6.314;2023-09-08T00:50:56;101247.00;;;19.03;100.00
29935;BME280;19905;53.370;-6.314;2023-09-08T00:53:27;101248.31;;;18.99;100.00
29935;BME280;19905;53.370;-6.314;2023-09-08T00:55:56;101241.59;;;18.95;100.00
29935;BME280;19905;53.370;-6.314;2023-09-08T00:58:28;101245.59;;;18.91;100.00
29935;BME280;19905;53.370;-6.314;2023-09-08T01:00:56;101235.59;;;18.93;100.00
29935;BME280;19905;53.370;-6.314;2023-09-08T01:03:25;101237.41;;;18.93;100.00
29935;BME280;19905;53.370;-6.314;2023-09-08T01:05:55;101250.16;;;18.99;100.00
29935;BME280;19905;53.370;-6.314;2023-09-08T01:08:27;101243.31;;;19.04;100.00
29935;BME280;19905;53.370;-6.314;2023-09-08T01:10:56;101244.81;;;18.99;100.00
29935;BME280;19905;53.370;-6.314;2023-09-08T01:13:25;101255.34;;;19.00;100.00
29935;BME280;19905;53.370;-6.314;2023-09-08T01:15:53;101255.34;;;19.00;100.00
29935;BME280;19905;53.370;-6.314;2023-09-08T01:18:22;101248.25;;;18.91;100.00
29935;BME280;19905;53.370;-6.314;2023-09-08T01:21:13;101258.94;;;18.83;100.00
29935;BME280;19905;53.370;-6.314;2023-09-08T01:23:59;101253.91;;;18.80;100.00
29935;BME280;19905;53.370;-6.314;2023-09-08T01:26:39;101246.22;;;18.85;100.00
29935;BME280;19905;53.370;-6.314;2023-09-08T01:29:09;101240.88;;;18.85;100.00
29935;BME280;19905;53.370;-6.314;2023-09-08T01:31:38;101235.47;;;18.77;100.00
29935;BME280;19905;53.370;-6.314;2023-09-08T01:34:08;101238.78;;;18.71;100.00
29935;BME280;19905;53.370;-6.314;2023-09-08T01:36:37;101239.22;;;18.66;100.00
29935;BME280;19905;53.370;-6.314;2023-09-08T01:39:06;101244.75;;;18.65;100.00
29935;BME280;19905;53.370;-6.314;2023-09-08T01:41:36;101228.69;;;18.65;100.00
29935;BME280;19905;53.370;-6.314;2023-09-08T01:44:06;101224.94;;;18.58;100.00
29935;BME280;19905;53.370;-6.314;2023-09-08T01:46:37;101224.69;;;18.43;100.00
29935;BME280;19905;53.370;-6.314;2023-09-08T01:49:08;101229.31;;;18.41;100.00
29935;BME280;19905;53.370;-6.314;2023-09-08T01:51:36;101239.56;;;18.45;100.00
29935;BME280;19905;53.370;-6.314;2023-09-08T01:54:05;101229.19;;;18.42;100.00
29935;BME280;19905;53.370;-6.314;2023-09-08T01:56:35;101227.97;;;18.37;100.00
29935;BME280;19905;53.370;-6.314;2023-09-08T01:59:04;101220.41;;;18.32;100.00
29935;BME280;19905;53.370;-6.314;2023-09-08T02:01:33;101223.88;;;18.24;100.00
29935;BME280;19905;53.370;-6.314;2023-09-08T02:04:03;101243.13;;;18.28;100.00
29935;BME280;19905;53.370;-6.314;2023-09-08T02:06:32;101231.06;;;18.24;100.00
29935;BME280;19905;53.370;-6.314;2023-09-08T02:09:00;101229.34;;;18.23;100.00
29935;BME280;19905;53.370;-6.314;2023-09-08T02:11:29;101226.53;;;18.24;100.00
29935;BME280;19905;53.370;-6.314;2023-09-08T02:13:59;101219.06;;;18.28;100.00
29935;BME280;19905;53.370;-6.314;2023-09-08T02:16:28;101213.53;;;18.29;100.00
29935;BME280;19905;53.370;-6.314;2023-09-08T02:18:57;101213.72;;;18.28;100.00
29935;BME280;19905;53.370;-6.314;2023-09-08T02:21:25;101219.56;;;18.32;100.00
29935;BME280;19905;53.370;-6.314;2023-09-08T02:23:54;101213.91;;;18.35;100.00
29935;BME280;19905;53.370;-6.314;2023-09-08T02:26:23;101221.47;;;18.39;100.00
29935;BME280;19905;53.370;-6.314;2023-09-08T02:28:53;101225.50;;;18.43;100.00
29935;BME280;19905;53.370;-6.314;2023-09-08T02:31:23;101227.66;;;18.40;100.00
29935;BME280;19905;53.370;-6.314;2023-09-08T02:33:52;101225.06;;;18.30;100.00
29935;BME280;19905;53.370;-6.314;2023-09-08T02:36:21;101231.78;;;18.34;100.00
29935;BME280;19905;53.370;-6.314;2023-09-08T02:38:52;101228.28;;;18.34;100.00
29935;BME280;19905;53.370;-6.314;2023-09-08T02:41:22;101235.47;;;18.33;100.00
29935;BME280;19905;53.370;-6.314;2023-09-08T02:43:50;101230.72;;;18.27;100.00
29935;BME280;19905;53.370;-6.314;2023-09-08T02:46:19;101227.50;;;18.23;100.00
29935;BME280;19905;53.370;-6.314;2023-09-08T02:48:49;101237.00;;;18.18;100.00
29935;BME280;19905;53.370;-6.314;2023-09-08T02:51:18;101252.19;;;18.17;100.00
29935;BME280;19905;53.370;-6.314;2023-09-08T02:53:47;101246.00;;;18.17;100.00
29935;BME280;19905;53.370;-6.314;2023-09-08T02:56:16;101243.06;;;18.20;100.00
29935;BME280;19905;53.370;-6.314;2023-09-08T02:58:44;101250.38;;;18.18;100.00
29935;BME280;19905;53.370;-6.314;2023-09-08T03:01:14;101249.22;;;18.20;100.00
29935;BME280;19905;53.370;-6.314;2023-09-08T03:03:43;101252.28;;;18.25;100.00
29935;BME280;19905;53.370;-6.314;2023-09-08T03:06:14;101244.47;;;18.32;100.00
29935;BME280;19905;53.370;-6.314;2023-09-08T03:08:43;101232.25;;;18.29;100.00
29935;BME280;19905;53.370;-6.314;2023-09-08T03:11:12;101246.19;;;18.33;100.00
29935;BME280;19905;53.370;-6.314;2023-09-08T03:13:41;101231.72;;;18.26;100.00
29935;BME280;19905;53.370;-6.314;2023-09-08T03:16:10;101229.34;;;18.23;100.00
29935;BME280;19905;53.370;-6.314;2023-09-08T03:18:39;101231.97;;;18.15;100.00
29935;BME280;19905;53.370;-6.314;2023-09-08T03:21:07;101227.00;;;18.20;100.00
29935;BME280;19905;53.370;-6.314;2023-09-08T03:23:42;101226.06;;;18.29;100.00
29935;BME280;19905;53.370;-6.314;2023-09-08T03:26:11;101222.56;;;18.28;100.00
29935;BME280;19905;53.370;-6.314;2023-09-08T03:28:42;101217.69;;;18.06;100.00
29935;BME280;19905;53.370;-6.314;2023-09-08T03:31:11;101226.00;;;17.85;100.00
29935;BME280;19905;53.370;-6.314;2023-09-08T03:33:40;101240.06;;;17.87;100.00
29935;BME280;19905;53.370;-6.314;2023-09-08T03:36:09;101242.41;;;17.90;100.00
29935;BME280;19905;53.370;-6.314;2023-09-08T03:38:39;101240.38;;;18.02;100.00
29935;BME280;19905;53.370;-6.314;2023-09-08T03:41:08;101225.25;;;18.11;100.00
29935;BME280;19905;53.370;-6.314;2023-09-08T03:43:38;101227.47;;;18.15;100.00
29935;BME280;19905;53.370;-6.314;2023-09-08T03:46:07;101219.81;;;18.20;100.00
29935;BME280;19905;53.370;-6.314;2023-09-08T03:48:35;101216.97;;;18.22;100.00
29935;BME280;19905;53.370;-6.314;2023-09-08T03:51:04;101212.94;;;18.18;100.00
29935;BME280;19905;53.370;-6.314;2023-09-08T03:53:33;101208.22;;;18.12;100.00
29935;BME280;19905;53.370;-6.314;2023-09-08T03:56:03;101216.84;;;18.06;100.00
29935;BME280;19905;53.370;-6.314;2023-09-08T03:58:32;101216.44;;;18.00;100.00
29935;BME280;19905;53.370;-6.314;2023-09-08T04:01:00;101222.66;;;18.01;100.00
29935;BME280;19905;53.370;-6.314;2023-09-08T04:03:29;101212.25;;;17.98;100.00
29935;BME280;19905;53.370;-6.314;2023-09-08T04:05:58;101212.34;;;18.06;100.00
29935;BME280;19905;53.370;-6.314;2023-09-08T04:08:27;101216.41;;;18.10;100.00
29935;BME280;19905;53.370;-6.314;2023-09-08T04:10:55;101219.75;;;18.12;100.00
29935;BME280;19905;53.370;-6.314;2023-09-08T04:13:25;101216.31;;;18.02;100.00
29935;BME280;19905;53.370;-6.314;2023-09-08T04:15:54;101222.19;;;17.88;100.00
29935;BME280;19905;53.370;-6.314;2023-09-08T04:18:23;101218.16;;;17.84;100.00
29935;BME280;19905;53.370;-6.314;2023-09-08T04:20:52;101214.03;;;17.89;100.00
29935;BME280;19905;53.370;-6.314;2023-09-08T04:23:21;101220.03;;;17.91;100.00
29935;BME280;19905;53.370;-6.314;2023-09-08T04:25:50;101218.22;;;17.92;100.00
29935;BME280;19905;53.370;-6.314;2023-09-08T04:28:18;101224.09;;;17.95;100.00
29935;BME280;19905;53.370;-6.314;2023-09-08T04:30:48;101229.44;;;17.95;100.00
29935;BME280;19905;53.370;-6.314;2023-09-08T04:33:17;101224.31;;;17.84;100.00
29935;BME280;19905;53.370;-6.314;2023-09-08T04:35:46;101219.97;;;17.83;100.00
29935;BME280;19905;53.370;-6.314;2023-09-08T04:38:15;101217.16;;;17.85;100.00
29935;BME280;19905;53.370;-6.314;2023-09-08T04:40:45;101222.19;;;17.88;100.00
29935;BME280;19905;53.370;-6.314;2023-09-08T04:43:15;101218.53;;;17.89;100.00
29935;BME280;19905;53.370;-6.314;2023-09-08T04:45:43;101209.66;;;17.88;100.00
29935;BME280;19905;53.370;-6.314;2023-09-08T04:48:13;101212.47;;;17.87;100.00
29935;BME280;19905;53.370;-6.314;2023-09-08T04:50:43;101216.31;;;17.84;100.00
29935;BME280;19905;53.370;-6.314;2023-09-08T04:53:11;101223.72;;;17.90;100.00
29935;BME280;19905;53.370;-6.314;2023-09-08T04:55:40;101230.84;;;17.72;100.00
29935;BME280;19905;53.370;-6.314;2023-09-08T04:58:09;101235.19;;;17.55;100.00
29935;BME280;19905;53.370;-6.314;2023-09-08T05:00:38;101234.56;;;17.61;100.00
29935;BME280;19905;53.370;-6.314;2023-09-08T05:03:07;101233.88;;;17.59;100.00
29935;BME280;19905;53.370;-6.314;2023-09-08T05:05:38;101221.34;;;17.42;100.00
29935;BME280;19905;53.370;-6.314;2023-09-08T05:08:07;101226.56;;;17.34;100.00
29935;BME280;19905;53.370;-6.314;2023-09-08T05:10:35;101229.09;;;17.35;100.00
29935;BME280;19905;53.370;-6.314;2023-09-08T05:13:04;101226.28;;;17.37;100.00
29935;BME280;19905;53.370;-6.314;2023-09-08T05:15:46;101224.84;;;17.42;100.00
29935;BME280;19905;53.370;-6.314;2023-09-08T05:18:15;101223.69;;;17.45;100.00
29935;BME280;19905;53.370;-6.314;2023-09-08T05:20:47;101225.19;;;17.57;100.00
29935;BME280;19905;53.370;-6.314;2023-09-08T05:23:16;101216.88;;;17.60;100.00
29935;BME280;19905;53.370;-6.314;2023-09-08T05:25:45;101221.50;;;17.58;100.00
29935;BME280;19905;53.370;-6.314;2023-09-08T05:28:13;101220.84;;;17.56;100.00
29935;BME280;19905;53.370;-6.314;2023-09-08T05:30:42;101227.41;;;17.62;100.00
29935;BME280;19905;53.370;-6.314;2023-09-08T05:33:11;101226.72;;;17.60;100.00
29935;BME280;19905;53.370;-6.314;2023-09-08T05:35:41;101240.47;;;17.65;100.00
29935;BME280;19905;53.370;-6.314;2023-09-08T05:38:11;101234.81;;;17.68;100.00
29935;BME280;19905;53.370;-6.314;2023-09-08T05:40:40;101248.59;;;17.63;100.00
29935;BME280;19905;53.370;-6.314;2023-09-08T05:43:09;101241.50;;;17.54;100.00
29935;BME280;19905;53.370;-6.314;2023-09-08T05:45:38;101239.53;;;17.56;100.00
29935;BME280;19905;53.370;-6.314;2023-09-08T05:48:06;101231.75;;;17.63;100.00
29935;BME280;19905;53.370;-6.314;2023-09-08T05:50:36;101231.63;;;17.64;100.00
29935;BME280;19905;53.370;-6.314;2023-09-08T05:53:05;101224.56;;;17.63;100.00
29935;BME280;19905;53.370;-6.314;2023-09-08T05:55:35;101232.75;;;17.62;100.00
29935;BME280;19905;53.370;-6.314;2023-09-08T05:58:04;101230.75;;;17.64;100.00
29935;BME280;19905;53.370;-6.314;2023-09-08T06:00:34;101224.13;;;17.68;100.00
29935;BME280;19905;53.370;-6.314;2023-09-08T06:03:03;101216.66;;;17.71;100.00
29935;BME280;19905;53.370;-6.314;2023-09-08T06:05:32;101223.56;;;17.74;100.00
29935;BME280;19905;53.370;-6.314;2023-09-08T06:08:01;101222.94;;;17.80;100.00
29935;BME280;19905;53.370;-6.314;2023-09-08T06:10:35;101230.28;;;17.78;100.00
29935;BME280;19905;53.370;-6.314;2023-09-08T06:13:04;101242.53;;;17.43;100.00
29935;BME280;19905;53.370;-6.314;2023-09-08T06:15:33;101262.19;;;17.24;100.00
29935;BME280;19905;53.370;-6.314;2023-09-08T06:18:02;101264.88;;;17.15;100.00
29935;BME280;19905;53.370;-6.314;2023-09-08T06:20:31;101269.91;;;17.27;100.00
29935;BME280;19905;53.370;-6.314;2023-09-08T06:23:00;101271.94;;;17.43;100.00
29935;BME280;19905;53.370;-6.314;2023-09-08T06:25:28;101266.69;;;17.51;100.00
29935;BME280;19905;53.370;-6.314;2023-09-08T06:27:58;101264.50;;;17.65;100.00
29935;BME280;19905;53.370;-6.314;2023-09-08T06:30:27;101266.63;;;17.61;100.00
29935;BME280;19905;53.370;-6.314;2023-09-08T06:32:56;101265.78;;;17.61;100.00
29935;BME280;19905;53.370;-6.314;2023-09-08T06:35:26;101256.88;;;17.70;100.00
29935;BME280;19905;53.370;-6.314;2023-09-08T06:37:54;101259.75;;;17.86;100.00
29935;BME280;19905;53.370;-6.314;2023-09-08T06:40:25;101257.72;;;17.98;100.00
29935;BME280;19905;53.370;-6.314;2023-09-08T06:42:54;101254.97;;;18.08;100.00
29935;BME280;19905;53.370;-6.314;2023-09-08T06:45:28;101256.50;;;18.10;100.00
29935;BME280;19905;53.370;-6.314;2023-09-08T06:47:57;101266.41;;;18.18;100.00
29935;BME280;19905;53.370;-6.314;2023-09-08T06:50:27;101258.94;;;18.21;100.00
29935;BME280;19905;53.370;-6.314;2023-09-08T06:52:57;101266.31;;;18.27;100.00
29935;BME280;19905;53.370;-6.314;2023-09-08T06:55:26;101261.97;;;18.26;100.00
29935;BME280;19905;53.370;-6.314;2023-09-08T06:57:56;101267.94;;;18.20;100.00
29935;BME280;19905;53.370;-6.314;2023-09-08T07:00:25;101276.66;;;18.22;100.00
29935;BME280;19905;53.370;-6.314;2023-09-08T07:02:57;101277.94;;;18.18;100.00
29935;BME280;19905;53.370;-6.314;2023-09-08T07:05:26;101282.91;;;18.13;100.00
29935;BME280;19905;53.370;-6.314;2023-09-08T07:07:54;101274.22;;;18.11;100.00
29935;BME280;19905;53.370;-6.314;2023-09-08T07:10:23;101277.44;;;18.15;100.00
29935;BME280;19905;53.370;-6.314;2023-09-08T07:12:52;101280.88;;;18.25;100.00
29935;BME280;19905;53.370;-6.314;2023-09-08T07:15:20;101278.56;;;18.30;100.00
29935;BME280;19905;53.370;-6.314;2023-09-08T07:17:49;101282.00;;;18.40;100.00
29935;BME280;19905;53.370;-6.314;2023-09-08T07:20:20;101289.25;;;18.48;100.00
29935;BME280;19905;53.370;-6.314;2023-09-08T07:22:49;101275.59;;;18.51;100.00
29935;BME280;19905;53.370;-6.314;2023-09-08T07:25:18;101280.28;;;18.57;100.00
29935;BME280;19905;53.370;-6.314;2023-09-08T07:27:46;101283.50;;;18.61;100.00
29935;BME280;19905;53.370;-6.314;2023-09-08T07:30:19;101276.41;;;18.69;100.00
29935;BME280;19905;53.370;-6.314;2023-09-08T07:32:48;101275.63;;;18.77;100.00
29935;BME280;19905;53.370;-6.314;2023-09-08T07:35:17;101271.09;;;18.77;100.00
29935;BME280;19905;53.370;-6.314;2023-09-08T07:37:49;101275.22;;;18.90;100.00
29935;BME280;19905;53.370;-6.314;2023-09-08T07:40:18;101279.09;;;18.95;100.00
29935;BME280;19905;53.370;-6.314;2023-09-08T07:42:47;101278.31;;;19.03;100.00
29935;BME280;19905;53.370;-6.314;2023-09-08T07:45:16;101278.97;;;19.05;100.00
29935;BME280;19905;53.370;-6.314;2023-09-08T07:47:44;101286.69;;;19.08;100.00
29935;BME280;19905;53.370;-6.314;2023-09-08T07:50:18;101286.81;;;19.24;100.00
29935;BME280;19905;53.370;-6.314;2023-09-08T07:52:50;101277.47;;;19.37;100.00
29935;BME280;19905;53.370;-6.314;2023-09-08T07:55:19;101271.31;;;19.44;100.00
29935;BME280;19905;53.370;-6.314;2023-09-08T07:57:50;101267.00;;;19.60;100.00
29935;BME280;19905;53.370;-6.314;2023-09-08T08:00:20;101261.41;;;19.71;100.00
29935;BME280;19905;53.370;-6.314;2023-09-08T08:02:50;101258.56;;;19.80;100.00
29935;BME280;19905;53.370;-6.314;2023-09-08T08:05:18;101259.09;;;19.84;100.00
29935;BME280;19905;53.370;-6.314;2023-09-08T08:07:48;101259.06;;;19.92;100.00
29935;BME280;19905;53.370;-6.314;2023-09-08T08:10:18;101255.06;;;19.96;100.00
29935;BME280;19905;53.370;-6.314;2023-09-08T08:12:46;101251.22;;;19.99;100.00
29935;BME280;19905;53.370;-6.314;2023-09-08T08:15:16;101247.22;;;20.03;100.00
29935;BME280;19905;53.370;-6.314;2023-09-08T08:17:44;101260.78;;;20.10;100.00
29935;BME280;19905;53.370;-6.314;2023-09-08T08:20:15;101252.94;;;20.16;100.00
29935;BME280;19905;53.370;-6.314;2023-09-08T08:22:45;101249.22;;;20.17;100.00
29935;BME280;19905;53.370;-6.314;2023-09-08T08:25:16;101250.75;;;20.28;100.00
29935;BME280;19905;53.370;-6.314;2023-09-08T08:27:46;101247.22;;;20.36;100.00
29935;BME280;19905;53.370;-6.314;2023-09-08T08:30:14;101249.41;;;20.32;100.00
29935;BME280;19905;53.370;-6.314;2023-09-08T08:32:44;101259.28;;;20.31;100.00
29935;BME280;19905;53.370;-6.314;2023-09-08T08:35:14;101260.97;;;20.41;100.00
29935;BME280;19905;53.370;-6.314;2023-09-08T08:37:43;101260.16;;;20.56;100.00
29935;BME280;19905;53.370;-6.314;2023-09-08T08:40:12;101254.44;;;20.68;100.00
29935;BME280;19905;53.370;-6.314;2023-09-08T08:42:42;101253.44;;;20.77;100.00
29935;BME280;19905;53.370;-6.314;2023-09-08T08:45:12;101253.06;;;20.88;100.00
29935;BME280;19905;53.370;-6.314;2023-09-08T08:47:41;101249.53;;;20.96;100.00
29935;BME280;19905;53.370;-6.314;2023-09-08T08:50:11;101255.53;;;20.98;100.00
29935;BME280;19905;53.370;-6.314;2023-09-08T08:52:44;101261.06;;;21.13;100.00
29935;BME280;19905;53.370;-6.314;2023-09-08T08:55:36;101256.00;;;21.26;100.00
29935;BME280;19905;53.370;-6.314;2023-09-08T09:02:05;101259.13;;;21.46;100.00
29935;BME280;19905;53.370;-6.314;2023-09-08T09:04:55;101247.31;;;21.55;100.00
29935;BME280;19905;53.370;-6.314;2023-09-08T09:14:08;101236.06;;;21.82;100.00
29935;BME280;19905;53.370;-6.314;2023-09-08T09:31:15;101226.97;;;22.06;100.00
29935;BME280;19905;53.370;-6.314;2023-09-08T09:33:43;101224.75;;;22.18;100.00
29935;BME280;19905;53.370;-6.314;2023-09-08T09:36:20;101221.06;;;22.34;100.00
29935;BME280;19905;53.370;-6.314;2023-09-08T09:38:49;101224.63;;;22.49;100.00
29935;BME280;19905;53.370;-6.314;2023-09-08T09:41:17;101208.03;;;22.61;100.00
29935;BME280;19905;53.370;-6.314;2023-09-08T09:43:47;101214.94;;;22.78;100.00
29935;BME280;19905;53.370;-6.314;2023-09-08T09:46:19;101221.38;;;22.92;100.00
29935;BME280;19905;53.370;-6.314;2023-09-08T09:48:51;101213.66;;;23.03;100.00
29935;BME280;19905;53.370;-6.314;2023-09-08T09:51:20;101206.50;;;23.11;100.00
29935;BME280;19905;53.370;-6.314;2023-09-08T09:53:50;101206.94;;;23.29;100.00
29935;BME280;19905;53.370;-6.314;2023-09-08T09:56:20;101214.16;;;23.43;100.00
29935;BME280;19905;53.370;-6.314;2023-09-08T09:58:52;101212.41;;;23.50;100.00
29935;BME280;19905;53.370;-6.314;2023-09-08T10:01:25;101210.97;;;23.54;100.00
29935;BME280;19905;53.370;-6.314;2023-09-08T10:03:55;101218.66;;;23.72;100.00
29935;BME280;19905;53.370;-6.314;2023-09-08T10:06:25;101211.69;;;23.78;100.00
29935;BME280;19905;53.370;-6.314;2023-09-08T10:08:55;101206.16;;;23.86;100.00
29935;BME280;19905;53.370;-6.314;2023-09-08T10:11:27;101209.81;;;24.00;100.00
29935;BME280;19905;53.370;-6.314;2023-09-08T10:13:59;101212.09;;;23.96;100.00
29935;BME280;19905;53.370;-6.314;2023-09-08T10:16:34;101207.69;;;24.17;100.00
29935;BME280;19905;53.370;-6.314;2023-09-08T10:19:07;101210.50;;;24.30;100.00
29935;BME280;19905;53.370;-6.314;2023-09-08T10:21:41;101204.03;;;24.24;100.00
29935;BME280;19905;53.370;-6.314;2023-09-08T10:24:14;101210.72;;;24.28;100.00
29935;BME280;19905;53.370;-6.314;2023-09-08T10:26:47;101216.00;;;24.15;100.00
29935;BME280;19905;53.370;-6.314;2023-09-08T10:29:20;101211.53;;;24.29;100.00
29935;BME280;19905;53.370;-6.314;2023-09-08T10:31:52;101201.47;;;24.38;100.00
29935;BME280;19905;53.370;-6.314;2023-09-08T10:34:23;101206.13;;;24.50;100.00
29935;BME280;19905;53.370;-6.314;2023-09-08T10:36:53;101202.06;;;24.61;100.00
29935;BME280;19905;53.370;-6.314;2023-09-08T10:39:29;101207.69;;;24.66;100.00
29935;BME280;19905;53.370;-6.314;2023-09-08T10:42:21;101199.22;;;24.76;100.00
29935;BME280;19905;53.370;-6.314;2023-09-08T10:45:00;101202.47;;;24.99;100.00
29935;BME280;19905;53.370;-6.314;2023-09-08T10:50:29;101206.84;;;25.00;100.00
29935;BME280;19905;53.370;-6.314;2023-09-08T10:53:10;101199.09;;;25.25;100.00
29935;BME280;19905;53.370;-6.314;2023-09-08T10:55:42;101196.03;;;25.42;100.00
29935;BME280;19905;53.370;-6.314;2023-09-08T10:58:31;101197.91;;;25.41;100.00
29935;BME280;19905;53.370;-6.314;2023-09-08T11:01:01;101193.16;;;25.43;100.00
29935;BME280;19905;53.370;-6.314;2023-09-08T11:03:45;101195.03;;;25.56;100.00
29935;BME280;19905;53.370;-6.314;2023-09-08T11:06:18;101189.44;;;25.57;100.00
29935;BME280;19905;53.370;-6.314;2023-09-08T11:08:50;101191.56;;;25.75;100.00
29935;BME280;19905;53.370;-6.314;2023-09-08T11:11:25;101185.56;;;26.06;100.00
29935;BME280;19905;53.370;-6.314;2023-09-08T11:13:54;101187.44;;;26.19;100.00
29935;BME280;19905;53.370;-6.314;2023-09-08T11:16:24;101171.00;;;26.21;100.00
29935;BME280;19905;53.370;-6.314;2023-09-08T11:18:58;101183.50;;;26.15;100.00
29935;BME280;19905;53.370;-6.314;2023-09-08T11:21:28;101188.50;;;25.98;100.00
29935;BME280;19905;53.370;-6.314;2023-09-08T11:24:03;101181.81;;;26.14;100.00
29935;BME280;19905;53.370;-6.314;2023-09-08T11:26:33;101176.19;;;26.42;100.00
29935;BME280;19905;53.370;-6.314;2023-09-08T11:29:02;101174.13;;;26.57;100.00
29935;BME280;19905;53.370;-6.314;2023-09-08T11:31:33;101163.94;;;26.53;100.00
29935;BME280;19905;53.370;-6.314;2023-09-08T11:34:04;101164.94;;;26.58;100.00
29935;BME280;19905;53.370;-6.314;2023-09-08T11:36:35;101174.09;;;26.38;100.00
29935;BME280;19905;53.370;-6.314;2023-09-08T11:39:08;101169.69;;;26.70;100.00
29935;BME280;19905;53.370;-6.314;2023-09-08T11:41:40;101156.97;;;26.77;100.00
29935;BME280;19905;53.370;-6.314;2023-09-08T11:44:09;101151.13;;;26.80;100.00
29935;BME280;19905;53.370;-6.314;2023-09-08T11:46:40;101144.16;;;27.04;100.00
29935;BME280;19905;53.370;-6.314;2023-09-08T11:49:18;101144.50;;;27.21;100.00
29935;BME280;19905;53.370;-6.314;2023-09-08T11:51:47;101146.38;;;27.27;100.00
29935;BME280;19905;53.370;-6.314;2023-09-08T11:54:16;101145.16;;;27.23;100.00
29935;BME280;19905;53.370;-6.314;2023-09-08T11:56:47;101147.56;;;27.38;100.00
29935;BME280;19905;53.370;-6.314;2023-09-08T11:59:16;101135.06;;;27.30;100.00
29935;BME280;19905;53.370;-6.314;2023-09-08T12:01:45;101140.91;;;27.33;100.00
29935;BME280;19905;53.370;-6.314;2023-09-08T12:04:19;101134.91;;;27.25;100.00
29935;BME280;19905;53.370;-6.314;2023-09-08T12:06:49;101132.47;;;27.48;100.00
29935;BME280;19905;53.370;-6.314;2023-09-08T12:09:20;101133.50;;;27.54;100.00
29935;BME280;19905;53.370;-6.314;2023-09-08T12:11:50;101137.22;;;27.59;100.00
29935;BME280;19905;53.370;-6.314;2023-09-08T12:14:18;101135.09;;;27.93;100.00
29935;BME280;19905;53.370;-6.314;2023-09-08T12:16:47;101129.00;;;27.98;100.00
29935;BME280;19905;53.370;-6.314;2023-09-08T12:19:30;101131.44;;;27.49;100.00
29935;BME280;19905;53.370;-6.314;2023-09-08T12:22:02;101128.66;;;27.56;100.00
29935;BME280;19905;53.370;-6.314;2023-09-08T12:24:56;101129.66;;;27.61;100.00
29935;BME280;19905;53.370;-6.314;2023-09-08T12:27:26;101111.03;;;28.22;100.00
29935;BME280;19905;53.370;-6.314;2023-09-08T12:29:57;101121.19;;;28.08;100.00
29935;BME280;19905;53.370;-6.314;2023-09-08T12:32:28;101120.81;;;28.04;100.00
29935;BME280;19905;53.370;-6.314;2023-09-08T12:35:00;101115.44;;;27.98;100.00
29935;BME280;19905;53.370;-6.314;2023-09-08T12:37:33;101108.13;;;27.73;100.00
29935;BME280;19905;53.370;-6.314;2023-09-08T12:40:02;101109.00;;;27.92;100.00
29935;BME280;19905;53.370;-6.314;2023-09-08T12:42:33;101107.44;;;28.28;100.00
29935;BME280;19905;53.370;-6.314;2023-09-08T12:45:13;101107.47;;;28.21;100.00
29935;BME280;19905;53.370;-6.314;2023-09-08T12:47:43;101112.47;;;28.24;100.00
29935;BME280;19905;53.370;-6.314;2023-09-08T12:50:13;101100.50;;;28.32;100.00
29935;BME280;19905;53.370;-6.314;2023-09-08T12:52:42;101104.56;;;28.23;100.00
29935;BME280;19905;53.370;-6.314;2023-09-08T12:55:11;101109.41;;;28.39;100.00
29935;BME280;19905;53.370;-6.314;2023-09-08T12:57:39;101112.47;;;27.99;100.00
29935;BME280;19905;53.370;-6.314;2023-09-08T13:00:10;101106.53;;;27.91;100.00
29935;BME280;19905;53.370;-6.314;2023-09-08T13:02:40;101113.75;;;27.72;100.00
29935;BME280;19905;53.370;-6.314;2023-09-08T13:05:08;101112.13;;;27.96;100.00
29935;BME280;19905;53.370;-6.314;2023-09-08T13:07:40;101113.66;;;27.85;100.00
29935;BME280;19905;53.370;-6.314;2023-09-08T13:10:09;101108.22;;;27.85;100.00
29935;BME280;19905;53.370;-6.314;2023-09-08T13:12:38;101110.16;;;27.46;100.00
29935;BME280;19905;53.370;-6.314;2023-09-08T13:15:08;101112.31;;;27.62;100.00